createdAt,value
2018-08-20T00:00:51.125Z,33.2
2018-08-20T00:01:52.564Z,33.2
2018-08-20T00:02:54.023Z,33.7
2018-08-20T00:03:55.577Z,34.2
2018-08-20T00:04:56.952Z,33.2
2018-08-20T00:05:58.240Z,33.2
2018-08-20T00:06:59.887Z,33.7
2018-08-20T00:08:01.025Z,33.7
2018-08-20T00:09:02.636Z,33.7
2018-08-20T00:10:04.256Z,32.7
2018-08-20T00:11:05.731Z,33.2
2018-08-20T00:12:07.353Z,33.2
2018-08-20T00:13:08.966Z,33.7
2018-08-20T00:14:10.599Z,33.7
2018-08-20T00:15:12.206Z,33.7
2018-08-20T00:16:13.796Z,33.2
2018-08-20T00:17:15.383Z,33.7
2018-08-20T00:18:16.827Z,32.7
2018-08-20T00:19:18.433Z,34.2
2018-08-20T00:20:19.878Z,33.7
2018-08-20T00:21:21.474Z,33.7
2018-08-20T00:22:23.081Z,33.7
2018-08-20T00:23:24.368Z,33.7
2018-08-20T00:24:26.022Z,33.2
2018-08-20T00:25:27.654Z,33.2
2018-08-20T00:26:29.270Z,33.2
2018-08-20T00:27:30.887Z,33.7
2018-08-20T00:28:32.311Z,32.7
2018-08-20T00:29:33.764Z,32.7
2018-08-20T00:30:35.359Z,33.2
2018-08-20T00:31:36.792Z,33.2
2018-08-20T00:32:38.247Z,33.7
2018-08-20T00:33:39.534Z,33.2
2018-08-20T00:34:40.795Z,33.2
2018-08-20T00:35:42.235Z,33.2
2018-08-20T00:36:43.524Z,33.2
2018-08-20T00:37:44.947Z,33.7
2018-08-20T00:38:46.547Z,34.2
2018-08-20T00:39:48.150Z,33.2
2018-08-20T00:40:49.633Z,34.2
2018-08-20T00:41:51.059Z,32.7
2018-08-20T00:42:52.340Z,33.2
2018-08-20T00:43:53.780Z,34.2
2018-08-20T00:44:55.218Z,32.7
2018-08-20T00:45:56.661Z,32.3
2018-08-20T00:46:58.266Z,33.2
2018-08-20T00:47:59.861Z,33.7
2018-08-20T00:49:01.473Z,33.2
2018-08-20T00:50:03.070Z,33.7
2018-08-20T00:51:04.653Z,33.7
2018-08-20T00:52:06.096Z,33.2
2018-08-20T00:53:07.702Z,33.2
2018-08-20T00:54:09.304Z,33.7
2018-08-20T00:55:10.907Z,33.7
2018-08-20T00:56:12.519Z,33.2
2018-08-20T00:57:14.115Z,33.2
2018-08-20T00:58:15.723Z,33.2
2018-08-20T00:59:17.341Z,33.2
2018-08-20T01:00:18.942Z,33.2
2018-08-20T01:01:20.537Z,32.7
2018-08-20T01:02:21.659Z,33.2
2018-08-20T01:03:22.913Z,33.7
2018-08-20T01:04:24.347Z,33.7
2018-08-20T01:05:25.975Z,33.7
2018-08-20T01:06:27.439Z,32.7
2018-08-20T01:07:28.878Z,34.2
2018-08-20T01:08:30.487Z,30.8
2018-08-20T01:09:32.084Z,29.3
2018-08-20T01:10:33.499Z,28.3
2018-08-20T01:11:34.786Z,28.8
2018-08-20T01:12:36.411Z,28.8
2018-08-20T01:13:37.844Z,29.3
2018-08-20T01:14:39.285Z,31.3
2018-08-20T01:15:40.723Z,32.7
2018-08-20T01:16:41.990Z,34.2
2018-08-20T01:17:43.260Z,35.7
2018-08-20T01:18:44.860Z,36.2
2018-08-20T01:19:46.306Z,36.7
2018-08-20T01:20:47.967Z,36.7
2018-08-20T01:21:49.405Z,37.6
2018-08-20T01:22:50.999Z,38.6
2018-08-20T01:23:52.588Z,38.6
2018-08-20T01:24:54.237Z,39.1
2018-08-20T01:25:55.864Z,39.1
2018-08-20T01:26:57.316Z,39.6
2018-08-20T01:27:58.899Z,39.6
2018-08-20T01:29:00.337Z,40.6
2018-08-20T01:30:01.779Z,40.6
2018-08-20T01:31:03.393Z,40.6
2018-08-20T01:32:04.691Z,41.1
2018-08-20T01:33:05.954Z,41.1
2018-08-20T01:34:07.419Z,41.1
2018-08-20T01:35:08.864Z,41.5
2018-08-20T01:36:10.327Z,41.1
2018-08-20T01:37:11.934Z,40.6
2018-08-20T01:38:13.538Z,41.1
2018-08-20T01:39:14.972Z,41.5
2018-08-20T01:40:16.579Z,41.1
2018-08-20T01:41:18.037Z,41.5
2018-08-20T01:42:19.894Z,42
2018-08-20T01:43:21.000Z,41.5
2018-08-20T01:44:22.435Z,40.6
2018-08-20T01:45:24.031Z,42
2018-08-20T01:46:25.470Z,41.5
2018-08-20T01:47:26.928Z,42
2018-08-20T01:48:28.559Z,41.5
2018-08-20T01:49:30.005Z,42.5
2018-08-20T01:50:31.644Z,41.5
2018-08-20T01:51:33.269Z,42.5
2018-08-20T01:52:34.864Z,41.5
2018-08-20T01:53:36.327Z,41.5
2018-08-20T01:54:37.925Z,41.5
2018-08-20T01:55:39.195Z,41.5
2018-08-20T01:56:40.642Z,41.5
2018-08-20T01:57:42.225Z,42.5
2018-08-20T01:58:43.818Z,42
2018-08-20T01:59:45.414Z,41.1
2018-08-20T02:00:46.995Z,41.5
2018-08-20T02:01:48.602Z,41.1
2018-08-20T02:02:49.739Z,41.1
2018-08-20T02:03:51.021Z,41.5
2018-08-20T02:04:52.461Z,42
2018-08-20T02:05:53.734Z,41.1
2018-08-20T02:06:54.660Z,40.6
2018-08-20T02:07:56.119Z,41.1
2018-08-20T02:08:57.551Z,42
2018-08-20T02:09:58.964Z,41.5
2018-08-20T02:11:00.411Z,41.1
2018-08-20T02:12:01.712Z,42
2018-08-20T02:13:02.807Z,41.5
2018-08-20T02:14:04.416Z,41.1
2018-08-20T02:15:05.675Z,41.1
2018-08-20T02:16:07.101Z,41.1
2018-08-20T02:17:08.399Z,40.6
2018-08-20T02:18:09.984Z,41.1
2018-08-20T02:19:11.095Z,41.1
2018-08-20T02:20:12.545Z,41.1
2018-08-20T02:21:13.833Z,41.1
2018-08-20T02:22:15.435Z,40.6
2018-08-20T02:23:17.054Z,40.6
2018-08-20T02:24:18.498Z,40.6
2018-08-20T02:25:19.942Z,40.6
2018-08-20T02:26:21.225Z,41.1
2018-08-20T02:27:22.519Z,40.6
2018-08-20T02:28:23.635Z,41.5
2018-08-20T02:29:24.945Z,41.1
2018-08-20T02:30:26.535Z,40.1
2018-08-20T02:31:28.117Z,41.1
2018-08-20T02:32:29.549Z,41.1
2018-08-20T02:33:31.166Z,41.5
2018-08-20T02:34:32.779Z,41.5
2018-08-20T02:35:34.195Z,40.6
2018-08-20T02:36:35.791Z,41.1
2018-08-20T02:37:37.423Z,41.1
2018-08-20T02:38:39.032Z,40.6
2018-08-20T02:39:40.614Z,40.6
2018-08-20T02:40:42.232Z,41.1
2018-08-20T02:41:43.672Z,40.6
2018-08-20T02:42:45.296Z,40.6
2018-08-20T02:43:46.740Z,40.1
2018-08-20T02:44:48.174Z,40.6
2018-08-20T02:45:49.602Z,40.1
2018-08-20T02:46:51.050Z,40.6
2018-08-20T02:47:52.678Z,39.6
2018-08-20T02:48:54.297Z,41.1
2018-08-20T02:49:55.908Z,40.6
2018-08-20T02:50:57.511Z,40.6
2018-08-20T02:51:59.108Z,40.1
2018-08-20T02:53:00.708Z,41.1
2018-08-20T02:54:02.327Z,40.1
2018-08-20T02:55:03.960Z,40.1
2018-08-20T02:56:05.226Z,40.6
2018-08-20T02:57:06.502Z,41.1
2018-08-20T02:58:07.946Z,40.1
2018-08-20T02:59:09.558Z,39.6
2018-08-20T03:00:11.145Z,39.6
2018-08-20T03:01:12.585Z,40.1
2018-08-20T03:02:14.188Z,40.1
2018-08-20T03:03:15.477Z,40.6
2018-08-20T03:04:17.114Z,39.1
2018-08-20T03:05:18.751Z,40.1
2018-08-20T03:06:20.201Z,40.1
2018-08-20T03:07:21.800Z,40.1
2018-08-20T03:08:23.228Z,39.6
2018-08-20T03:09:24.827Z,39.6
2018-08-20T03:10:26.432Z,39.1
2018-08-20T03:11:27.883Z,40.1
2018-08-20T03:12:29.184Z,40.1
2018-08-20T03:13:30.657Z,39.1
2018-08-20T03:14:32.135Z,40.1
2018-08-20T03:15:33.555Z,40.1
2018-08-20T03:16:34.983Z,39.1
2018-08-20T03:17:36.443Z,40.1
2018-08-20T03:18:37.885Z,40.1
2018-08-20T03:19:39.512Z,39.1
2018-08-20T03:20:41.110Z,39.1
2018-08-20T03:21:42.409Z,39.6
2018-08-20T03:22:44.021Z,39.1
2018-08-20T03:23:45.635Z,39.6
2018-08-20T03:24:46.910Z,39.1
2018-08-20T03:25:48.516Z,39.1
2018-08-20T03:26:49.952Z,40.1
2018-08-20T03:27:51.537Z,39.6
2018-08-20T03:28:53.163Z,39.1
2018-08-20T03:29:54.775Z,40.1
2018-08-20T03:30:56.212Z,39.6
2018-08-20T03:31:57.640Z,39.6
2018-08-20T03:32:58.954Z,39.6
2018-08-20T03:34:00.562Z,40.1
2018-08-20T03:35:02.076Z,39.1
2018-08-20T03:36:03.523Z,40.6
2018-08-20T03:37:04.972Z,39.6
2018-08-20T03:38:06.427Z,40.1
2018-08-20T03:39:07.706Z,41.1
2018-08-20T03:40:09.345Z,40.6
2018-08-20T03:41:10.617Z,40.6
2018-08-20T03:42:12.222Z,40.6
2018-08-20T03:43:13.826Z,41.1
2018-08-20T03:44:15.453Z,41.1
2018-08-20T03:45:17.043Z,41.1
2018-08-20T03:46:18.646Z,41.5
2018-08-20T03:47:20.240Z,41.1
2018-08-20T03:48:21.862Z,41.1
2018-08-20T03:49:23.303Z,41.1
2018-08-20T03:50:24.903Z,42
2018-08-20T03:51:26.342Z,42
2018-08-20T03:52:27.952Z,42
2018-08-20T03:53:29.399Z,41.5
2018-08-20T03:54:30.995Z,42.5
2018-08-20T03:55:32.433Z,41.5
2018-08-20T03:56:34.040Z,41.5
2018-08-20T03:57:35.438Z,41.1
2018-08-20T03:58:37.215Z,42
2018-08-20T03:59:38.681Z,42.5
2018-08-20T04:00:40.320Z,41.5
2018-08-20T04:01:41.617Z,42
2018-08-20T04:02:43.126Z,41.5
2018-08-20T04:03:44.252Z,41.5
2018-08-20T04:04:45.556Z,41.1
2018-08-20T04:05:47.005Z,41.5
2018-08-20T04:06:48.641Z,42
2018-08-20T04:07:50.067Z,42
2018-08-20T04:08:51.687Z,42
2018-08-20T04:09:53.165Z,41.5
2018-08-20T04:10:54.781Z,42.5
2018-08-20T04:11:56.271Z,41.5
2018-08-20T04:12:57.776Z,42
2018-08-20T04:13:59.197Z,41.5
2018-08-20T04:15:00.485Z,40.6
2018-08-20T04:16:01.775Z,41.1
2018-08-20T04:17:03.383Z,41.5
2018-08-20T04:18:04.823Z,41.5
2018-08-20T04:19:06.416Z,41.1
2018-08-20T04:20:08.035Z,41.1
2018-08-20T04:21:08.975Z,40.6
2018-08-20T04:22:10.419Z,41.5
2018-08-20T04:23:12.033Z,41.1
2018-08-20T04:24:13.482Z,40.6
2018-08-20T04:25:14.936Z,40.6
2018-08-20T04:26:16.529Z,41.1
2018-08-20T04:27:18.128Z,41.5
2018-08-20T04:28:19.771Z,40.6
2018-08-20T04:29:21.361Z,41.1
2018-08-20T04:30:22.948Z,41.1
2018-08-20T04:31:24.594Z,41.1
2018-08-20T04:32:26.060Z,41.5
2018-08-20T04:33:27.707Z,40.6
2018-08-20T04:34:29.162Z,40.1
2018-08-20T04:35:30.616Z,40.6
2018-08-20T04:36:32.706Z,41.1
2018-08-20T04:37:34.386Z,40.1
2018-08-20T04:38:35.669Z,40.6
2018-08-20T04:39:37.130Z,41.1
2018-08-20T04:40:38.594Z,40.1
2018-08-20T04:41:40.030Z,41.1
2018-08-20T04:42:41.639Z,40.6
2018-08-20T04:43:43.076Z,40.1
2018-08-20T04:44:44.682Z,40.6
2018-08-20T04:45:45.956Z,40.6
2018-08-20T04:46:47.582Z,40.6
2018-08-20T04:47:49.192Z,40.1
2018-08-20T04:48:50.819Z,40.6
2018-08-20T04:49:52.782Z,41.1
2018-08-20T04:50:55.415Z,41.5
2018-08-20T04:51:57.384Z,40.6
2018-08-20T04:52:58.818Z,40.6
2018-08-20T04:54:00.262Z,40.6
2018-08-20T04:55:01.726Z,40.6
2018-08-20T04:56:03.388Z,40.6
2018-08-20T04:57:04.828Z,40.1
2018-08-20T04:58:06.281Z,40.1
2018-08-20T04:59:07.736Z,40.6
2018-08-20T05:00:09.371Z,40.6
2018-08-20T05:01:10.969Z,40.1
2018-08-20T05:02:12.286Z,40.1
2018-08-20T05:03:13.907Z,39.6
2018-08-20T05:04:15.527Z,40.1
2018-08-20T05:05:17.145Z,40.6
2018-08-20T05:06:18.763Z,40.1
2018-08-20T05:07:20.200Z,40.1
2018-08-20T05:08:21.816Z,40.6
2018-08-20T05:09:23.256Z,40.1
2018-08-20T05:10:24.894Z,40.1
2018-08-20T05:11:26.531Z,39.1
2018-08-20T05:12:28.144Z,39.1
2018-08-20T05:13:29.750Z,40.1
2018-08-20T05:14:31.338Z,40.1
2018-08-20T05:15:32.971Z,39.6
2018-08-20T05:16:34.566Z,39.6
2018-08-20T05:17:35.848Z,39.6
2018-08-20T05:18:37.289Z,40.1
2018-08-20T05:19:38.724Z,39.6
2018-08-20T05:20:40.145Z,40.1
2018-08-20T05:21:41.590Z,39.1
2018-08-20T05:22:43.208Z,39.1
2018-08-20T05:23:44.666Z,40.1
2018-08-20T05:24:46.278Z,39.6
2018-08-20T05:25:47.883Z,39.1
2018-08-20T05:26:49.440Z,39.1
2018-08-20T05:27:51.100Z,39.6
2018-08-20T05:28:52.377Z,39.6
2018-08-20T05:29:53.863Z,39.1
2018-08-20T05:30:55.310Z,40.1
2018-08-20T05:31:56.928Z,39.6
2018-08-20T05:32:58.198Z,39.1
2018-08-20T05:33:59.476Z,40.1
2018-08-20T05:35:00.774Z,38.6
2018-08-20T05:36:02.222Z,40.1
2018-08-20T05:37:03.675Z,40.1
2018-08-20T05:38:05.134Z,40.1
2018-08-20T05:39:06.423Z,40.6
2018-08-20T05:40:08.025Z,40.1
2018-08-20T05:41:09.642Z,40.1
2018-08-20T05:42:11.089Z,40.6
2018-08-20T05:43:12.754Z,41.1
2018-08-20T05:44:14.367Z,41.1
2018-08-20T05:45:15.970Z,40.6
2018-08-20T05:46:17.408Z,42
2018-08-20T05:47:19.016Z,40.6
2018-08-20T05:48:20.647Z,41.5
2018-08-20T05:49:22.091Z,41.5
2018-08-20T05:50:23.700Z,41.5
2018-08-20T05:51:24.981Z,41.5
2018-08-20T05:52:26.383Z,41.1
2018-08-20T05:53:27.876Z,40.6
2018-08-20T05:54:29.315Z,41.5
2018-08-20T05:55:30.582Z,41.5
2018-08-20T05:56:32.012Z,41.5
2018-08-20T05:57:33.595Z,42
2018-08-20T05:58:35.207Z,42
2018-08-20T05:59:36.486Z,42
2018-08-20T06:00:38.098Z,42
2018-08-20T06:01:39.527Z,41.1
2018-08-20T06:02:40.979Z,41.5
2018-08-20T06:03:42.416Z,41.1
2018-08-20T06:04:44.048Z,41.1
2018-08-20T06:05:45.490Z,41.5
2018-08-20T06:06:46.940Z,42
2018-08-20T06:07:48.651Z,42
2018-08-20T06:08:50.157Z,41.5
2018-08-20T06:09:51.627Z,41.1
2018-08-20T06:10:53.251Z,42
2018-08-20T06:11:54.720Z,41.5
2018-08-20T06:12:56.183Z,42
2018-08-20T06:13:57.824Z,41.5
2018-08-20T06:14:59.269Z,41.5
2018-08-20T06:16:00.899Z,41.5
2018-08-20T06:17:02.556Z,41.5
2018-08-20T06:18:04.177Z,41.5
2018-08-20T06:19:05.636Z,41.5
2018-08-20T06:20:07.248Z,41.1
2018-08-20T06:21:08.684Z,41.1
2018-08-20T06:22:10.310Z,41.5
2018-08-20T06:23:11.754Z,40.6
2018-08-20T06:24:13.389Z,41.1
2018-08-20T06:25:15.195Z,41.5
2018-08-20T06:26:16.944Z,41.1
2018-08-20T06:27:18.624Z,40.6
2018-08-20T06:28:20.397Z,40.6
2018-08-20T06:29:22.133Z,41.1
2018-08-20T06:30:23.806Z,40.6
2018-08-20T06:31:25.440Z,41.1
2018-08-20T06:32:26.906Z,41.1
2018-08-20T06:33:28.341Z,40.6
2018-08-20T06:34:29.953Z,40.6
2018-08-20T06:35:31.553Z,41.1
2018-08-20T06:36:33.147Z,41.1
2018-08-20T06:37:34.588Z,41.1
2018-08-20T06:38:36.239Z,41.1
2018-08-20T06:39:37.682Z,40.6
2018-08-20T06:40:39.108Z,41.1
2018-08-20T06:41:41.137Z,41.1
2018-08-20T06:42:43.046Z,40.6
2018-08-20T06:43:44.677Z,40.6
2018-08-20T06:44:45.947Z,41.1
2018-08-20T06:45:47.391Z,40.6
2018-08-20T06:46:48.823Z,40.1
2018-08-20T06:47:50.266Z,40.1
2018-08-20T06:48:51.863Z,40.6
2018-08-20T06:49:53.484Z,41.1
2018-08-20T06:50:55.090Z,40.6
2018-08-20T06:51:56.382Z,39.6
2018-08-20T06:52:58.000Z,40.6
2018-08-20T06:53:59.617Z,40.6
2018-08-20T06:55:01.222Z,40.6
2018-08-20T06:56:02.848Z,40.6
2018-08-20T06:57:04.439Z,40.1
2018-08-20T06:58:06.082Z,40.1
2018-08-20T06:59:07.753Z,40.1
2018-08-20T07:00:09.209Z,39.6
2018-08-20T07:01:10.820Z,40.1
2018-08-20T07:02:12.433Z,40.6
2018-08-20T07:03:14.046Z,40.1
2018-08-20T07:04:15.473Z,40.6
2018-08-20T07:05:16.926Z,40.1
2018-08-20T07:06:18.664Z,39.6
2018-08-20T07:07:20.406Z,40.1
2018-08-20T07:08:21.893Z,39.6
2018-08-20T07:09:23.326Z,39.6
2018-08-20T07:10:24.970Z,39.6
2018-08-20T07:11:26.407Z,39.6
2018-08-20T07:12:28.046Z,39.6
2018-08-20T07:13:29.681Z,40.1
2018-08-20T07:14:31.296Z,39.6
2018-08-20T07:15:32.763Z,40.6
2018-08-20T07:16:34.225Z,40.1
2018-08-20T07:17:35.906Z,39.6
2018-08-20T07:18:52.193Z,39.6
2018-08-20T07:19:53.652Z,39.6
2018-08-20T07:20:55.110Z,40.1
2018-08-20T07:21:56.730Z,39.1
2018-08-20T07:22:58.563Z,40.1
2018-08-20T07:24:00.242Z,39.1
2018-08-20T07:25:01.872Z,40.1
2018-08-20T07:26:03.413Z,41.1
2018-08-20T07:27:04.852Z,40.1
2018-08-20T07:28:06.460Z,40.6
2018-08-20T07:29:08.074Z,40.1
2018-08-20T07:30:09.516Z,40.6
2018-08-20T07:31:11.130Z,41.1
2018-08-20T07:32:12.592Z,41.1
2018-08-20T07:33:14.042Z,41.5
2018-08-20T07:34:15.493Z,40.1
2018-08-20T07:35:17.099Z,40.6
2018-08-20T07:36:18.715Z,40.6
2018-08-20T07:37:20.167Z,41.1
2018-08-20T07:38:21.444Z,41.5
2018-08-20T07:39:22.910Z,41.5
2018-08-20T07:40:24.548Z,41.5
2018-08-20T07:41:26.007Z,42
2018-08-20T07:42:27.936Z,41.5
2018-08-20T07:43:29.965Z,41.5
2018-08-20T07:44:31.427Z,42
2018-08-20T07:45:32.887Z,41.5
2018-08-20T07:46:34.490Z,41.1
2018-08-20T07:47:35.926Z,42
2018-08-20T07:48:37.216Z,42
2018-08-20T07:49:38.696Z,42.5
2018-08-20T07:50:40.136Z,42.5
2018-08-20T07:51:41.751Z,42
2018-08-20T07:52:43.424Z,42
2018-08-20T07:53:45.061Z,42
2018-08-20T07:54:46.730Z,41.1
2018-08-20T07:55:48.344Z,41.1
2018-08-20T07:56:50.008Z,42
2018-08-20T07:57:51.461Z,42
2018-08-20T07:58:53.078Z,41.5
2018-08-20T07:59:54.716Z,42
2018-08-20T08:00:55.848Z,41.5
2018-08-20T08:01:57.369Z,42
2018-08-20T08:02:58.985Z,41.5
2018-08-20T08:04:00.429Z,42
2018-08-20T08:05:01.884Z,41.1
2018-08-20T08:06:03.343Z,42
2018-08-20T08:07:04.806Z,41.5
2018-08-20T08:08:06.425Z,41.5
2018-08-20T08:09:08.046Z,41.1
2018-08-20T08:10:09.693Z,41.5
2018-08-20T08:11:11.318Z,40.6
2018-08-20T08:12:12.919Z,41.5
2018-08-20T08:13:14.374Z,41.1
2018-08-20T08:14:16.554Z,41.1
2018-08-20T08:15:18.243Z,41.1
2018-08-20T08:16:19.841Z,41.1
2018-08-20T08:17:21.289Z,41.1
2018-08-20T08:18:22.904Z,40.6
2018-08-20T08:19:24.522Z,41.1
2018-08-20T08:20:25.984Z,41.1
2018-08-20T08:21:27.613Z,41.1
2018-08-20T08:22:29.249Z,41.1
2018-08-20T08:23:30.526Z,41.1
2018-08-20T08:24:32.151Z,40.6
2018-08-20T08:25:33.626Z,40.1
2018-08-20T08:26:35.514Z,40.6
2018-08-20T08:27:37.108Z,41.1
2018-08-20T08:28:38.751Z,41.1
2018-08-20T08:29:40.356Z,41.1
2018-08-20T08:30:41.978Z,40.6
2018-08-20T08:31:43.601Z,40.6
2018-08-20T08:32:45.214Z,40.6
2018-08-20T08:33:46.476Z,40.6
2018-08-20T08:34:47.741Z,40.1
2018-08-20T08:35:49.039Z,40.6
2018-08-20T08:36:50.648Z,40.1
2018-08-20T08:37:52.096Z,40.6
2018-08-20T08:38:53.810Z,40.6
2018-08-20T08:39:55.428Z,40.1
2018-08-20T08:40:56.921Z,40.6
2018-08-20T08:41:58.548Z,40.6
2018-08-20T08:43:00.233Z,41.1
2018-08-20T08:44:01.864Z,40.1
2018-08-20T08:45:03.464Z,40.6
2018-08-20T08:46:04.911Z,40.6
2018-08-20T08:47:06.529Z,40.6
2018-08-20T08:48:07.822Z,40.6
2018-08-20T08:49:09.278Z,40.1
2018-08-20T08:50:10.561Z,39.6
2018-08-20T08:51:12.179Z,40.6
2018-08-20T08:52:13.647Z,40.6
2018-08-20T08:53:15.098Z,39.6
2018-08-20T08:54:16.550Z,40.6
2018-08-20T08:55:18.025Z,39.6
2018-08-20T08:56:19.630Z,40.1
2018-08-20T08:57:21.229Z,39.1
2018-08-20T08:58:22.887Z,39.6
2018-08-20T08:59:23.840Z,40.1
2018-08-20T09:00:25.675Z,40.6
2018-08-20T09:01:27.432Z,40.1
2018-08-20T09:02:28.899Z,40.1
2018-08-20T09:03:30.505Z,40.1
2018-08-20T09:04:32.153Z,39.6
2018-08-20T09:05:33.752Z,40.1
2018-08-20T09:06:35.193Z,39.1
2018-08-20T09:07:36.825Z,39.6
2018-08-20T09:08:38.138Z,40.1
2018-08-20T09:09:39.432Z,40.6
2018-08-20T09:10:40.708Z,40.1
2018-08-20T09:11:42.526Z,40.1
2018-08-20T09:12:44.136Z,40.6
2018-08-20T09:13:46.086Z,40.6
2018-08-20T09:14:47.629Z,40.6
2018-08-20T09:15:49.077Z,41.1
2018-08-20T09:16:50.526Z,41.1
2018-08-20T09:17:52.131Z,40.6
2018-08-20T09:18:53.748Z,40.6
2018-08-20T09:19:55.373Z,41.5
2018-08-20T09:20:56.819Z,41.5
2018-08-20T09:21:58.305Z,41.5
2018-08-20T09:22:59.752Z,42
2018-08-20T09:24:01.372Z,41.1
2018-08-20T09:25:02.969Z,41.1
2018-08-20T09:26:04.577Z,42
2018-08-20T09:27:06.016Z,42
2018-08-20T09:28:07.617Z,42
2018-08-20T09:29:09.082Z,41.5
2018-08-20T09:30:10.537Z,41.5
2018-08-20T09:31:11.971Z,41.5
2018-08-20T09:32:13.456Z,41.5
2018-08-20T09:33:15.220Z,42
2018-08-20T09:34:16.836Z,42.5
2018-08-20T09:35:18.455Z,42.5
2018-08-20T09:36:19.781Z,42.5
2018-08-20T09:37:21.399Z,42.5
2018-08-20T09:38:23.516Z,42.5
2018-08-20T09:39:25.270Z,42
2018-08-20T09:40:26.734Z,42
2018-08-20T09:41:28.193Z,42.5
2018-08-20T09:42:29.488Z,42
2018-08-20T09:43:30.942Z,42
2018-08-20T09:44:32.588Z,41.1
2018-08-20T09:45:33.872Z,42
2018-08-20T09:46:35.165Z,41.1
2018-08-20T09:47:36.447Z,42
2018-08-20T09:48:38.055Z,42
2018-08-20T09:49:39.649Z,41.5
2018-08-20T09:50:40.914Z,42
2018-08-20T09:51:42.529Z,41.5
2018-08-20T09:52:43.977Z,42
2018-08-20T09:53:45.593Z,41.5
2018-08-20T09:54:47.204Z,42
2018-08-20T09:55:48.798Z,41.5
2018-08-20T09:56:50.410Z,41.5
2018-08-20T09:57:52.016Z,41.1
2018-08-20T09:58:53.635Z,41.5
2018-08-20T09:59:54.913Z,41.5
2018-08-20T10:00:56.516Z,41.1
2018-08-20T10:01:57.974Z,41.1
2018-08-20T10:02:59.816Z,41.1
2018-08-20T10:04:01.284Z,41.5
2018-08-20T10:05:02.910Z,41.5
2018-08-20T10:06:04.545Z,41.1
2018-08-20T10:07:05.821Z,40.6
2018-08-20T10:08:07.273Z,40.1
2018-08-20T10:09:08.894Z,41.1
2018-08-20T10:10:10.508Z,41.1
2018-08-20T10:11:12.123Z,41.1
2018-08-20T10:12:13.589Z,41.1
2018-08-20T10:13:15.199Z,40.1
2018-08-20T10:14:16.632Z,40.1
2018-08-20T10:15:18.067Z,41.1
2018-08-20T10:16:19.356Z,41.1
2018-08-20T10:17:20.977Z,39.6
2018-08-20T10:18:22.609Z,41.1
2018-08-20T10:19:24.146Z,41.1
2018-08-20T10:20:25.595Z,40.6
2018-08-20T10:21:27.235Z,41.1
2018-08-20T10:22:28.684Z,40.1
2018-08-20T10:23:30.311Z,41.1
2018-08-20T10:24:32.059Z,40.6
2018-08-20T10:25:33.799Z,40.6
2018-08-20T10:26:35.236Z,41.1
2018-08-20T10:27:36.733Z,40.6
2018-08-20T10:28:38.012Z,41.1
2018-08-20T10:29:39.453Z,41.1
2018-08-20T10:30:40.901Z,40.1
2018-08-20T10:31:42.526Z,40.6
2018-08-20T10:32:44.130Z,40.1
2018-08-20T10:33:45.732Z,40.6
2018-08-20T10:34:47.192Z,40.1
2018-08-20T10:35:48.797Z,41.1
2018-08-20T10:36:50.415Z,39.6
2018-08-20T10:37:52.579Z,40.6
2018-08-20T10:38:54.888Z,40.6
2018-08-20T10:39:56.364Z,40.1
2018-08-20T10:40:58.009Z,40.6
2018-08-20T10:41:59.678Z,39.6
2018-08-20T10:43:01.297Z,40.1
2018-08-20T10:44:02.738Z,40.1
2018-08-20T10:45:04.354Z,40.1
2018-08-20T10:46:05.963Z,41.1
2018-08-20T10:47:07.616Z,41.1
2018-08-20T10:48:08.914Z,39.6
2018-08-20T10:49:10.550Z,39.6
2018-08-20T10:50:12.676Z,40.6
2018-08-20T10:51:14.586Z,39.1
2018-08-20T10:52:16.205Z,39.6
2018-08-20T10:53:17.829Z,40.1
2018-08-20T10:54:19.432Z,39.6
2018-08-20T10:55:20.885Z,40.1
2018-08-20T10:56:22.845Z,39.1
2018-08-20T10:57:24.416Z,39.6
2018-08-20T10:58:25.724Z,39.6
2018-08-20T10:59:27.399Z,39.1
2018-08-20T11:00:29.057Z,39.6
2018-08-20T11:01:30.497Z,39.6
2018-08-20T11:02:32.103Z,39.1
2018-08-20T11:03:33.721Z,41.1
2018-08-20T11:04:35.327Z,40.1
2018-08-20T11:05:36.935Z,40.6
2018-08-20T11:06:38.246Z,40.6
2018-08-20T11:07:39.717Z,41.1
2018-08-20T11:08:41.367Z,41.1
2018-08-20T11:09:43.007Z,40.6
2018-08-20T11:10:44.870Z,41.1
2018-08-20T11:11:46.404Z,40.6
2018-08-20T11:12:48.020Z,41.5
2018-08-20T11:13:49.489Z,41.1
2018-08-20T11:14:50.991Z,42
2018-08-20T11:15:52.448Z,41.1
2018-08-20T11:16:54.055Z,41.5
2018-08-20T11:17:55.523Z,41.5
2018-08-20T11:18:57.022Z,41.5
2018-08-20T11:19:58.477Z,42
2018-08-20T11:21:00.102Z,41.5
2018-08-20T11:22:16.228Z,42
2018-08-20T11:23:17.517Z,42
2018-08-20T11:24:18.995Z,42
2018-08-20T11:25:20.318Z,42.5
2018-08-20T11:26:21.944Z,42
2018-08-20T11:27:23.557Z,42
2018-08-20T11:28:25.177Z,42
2018-08-20T11:29:26.641Z,42
2018-08-20T11:30:28.111Z,41.5
2018-08-20T11:31:29.404Z,42.5
2018-08-20T11:32:31.016Z,42
2018-08-20T11:33:32.481Z,43
2018-08-20T11:34:33.935Z,42
2018-08-20T11:35:35.611Z,42
2018-08-20T11:36:37.522Z,42
2018-08-20T11:37:39.445Z,42.5
2018-08-20T11:38:41.048Z,42
2018-08-20T11:39:42.743Z,42
2018-08-20T11:40:44.397Z,41.1
2018-08-20T11:41:45.859Z,41.1
2018-08-20T11:42:47.490Z,41.5
2018-08-20T11:43:49.157Z,41.5
2018-08-20T11:44:50.446Z,41.5
2018-08-20T11:45:51.902Z,41.5
2018-08-20T11:46:53.518Z,42
2018-08-20T11:47:54.983Z,42
2018-08-20T11:48:56.621Z,41.5
2018-08-20T11:49:58.298Z,41.5
2018-08-20T11:50:59.750Z,42
2018-08-20T11:52:01.232Z,41.5
2018-08-20T11:53:02.890Z,42
2018-08-20T11:54:04.543Z,41.1
2018-08-20T11:55:06.177Z,41.5
2018-08-20T11:56:07.793Z,42
2018-08-20T11:57:09.407Z,41.5
2018-08-20T11:58:11.020Z,41.1
2018-08-20T11:59:12.641Z,41.1
2018-08-20T12:00:14.106Z,41.5
2018-08-20T12:01:15.716Z,41.1
2018-08-20T12:02:17.181Z,41.1
2018-08-20T12:03:18.642Z,41.1
2018-08-20T12:04:20.130Z,40.6
2018-08-20T12:05:21.738Z,41.1
2018-08-20T12:06:23.340Z,41.1
2018-08-20T12:07:25.418Z,41.5
2018-08-20T12:08:26.962Z,41.5
2018-08-20T12:09:28.586Z,41.1
2018-08-20T12:10:30.039Z,41.1
2018-08-20T12:11:31.636Z,41.1
2018-08-20T12:12:33.087Z,41.1
2018-08-20T12:13:34.537Z,41.1
2018-08-20T12:14:35.817Z,40.6
2018-08-20T12:15:37.438Z,40.6
2018-08-20T12:16:38.895Z,41.1
2018-08-20T12:17:40.518Z,41.1
2018-08-20T12:18:42.150Z,41.1
2018-08-20T12:19:43.449Z,41.5
2018-08-20T12:20:45.080Z,41.5
2018-08-20T12:21:46.346Z,40.6
2018-08-20T12:22:47.946Z,41.1
2018-08-20T12:23:49.577Z,40.6
2018-08-20T12:24:51.215Z,40.6
2018-08-20T12:25:52.866Z,40.6
2018-08-20T12:26:54.288Z,40.6
2018-08-20T12:27:55.890Z,40.6
2018-08-20T12:28:57.337Z,41.1
2018-08-20T12:29:58.787Z,40.6
2018-08-20T12:31:00.873Z,40.1
2018-08-20T12:32:02.961Z,40.6
2018-08-20T12:33:04.566Z,41.1
2018-08-20T12:34:06.002Z,40.1
2018-08-20T12:35:07.633Z,40.6
2018-08-20T12:36:09.277Z,40.1
2018-08-20T12:37:10.564Z,40.1
2018-08-20T12:38:11.686Z,40.6
2018-08-20T12:39:13.325Z,39.6
2018-08-20T12:40:15.135Z,40.1
2018-08-20T12:41:17.071Z,40.6
2018-08-20T12:42:18.673Z,41.1
2018-08-20T12:43:19.967Z,40.1
2018-08-20T12:44:21.586Z,40.1
2018-08-20T12:45:23.238Z,40.1
2018-08-20T12:46:24.543Z,40.6
2018-08-20T12:47:25.995Z,40.6
2018-08-20T12:48:27.637Z,40.1
2018-08-20T12:49:29.099Z,40.1
2018-08-20T12:50:30.553Z,40.1
2018-08-20T12:51:32.017Z,40.1
2018-08-20T12:52:33.478Z,39.6
2018-08-20T12:53:34.927Z,40.1
2018-08-20T12:54:36.539Z,40.1
2018-08-20T12:55:38.154Z,39.6
2018-08-20T12:56:39.764Z,39.6
2018-08-20T12:57:41.222Z,40.1
2018-08-20T12:58:42.852Z,39.6
2018-08-20T12:59:44.356Z,40.1
2018-08-20T13:00:45.742Z,40.1
2018-08-20T13:01:47.456Z,39.6
2018-08-20T13:02:49.071Z,40.6
2018-08-20T13:03:50.699Z,40.1
2018-08-20T13:04:52.150Z,39.6
2018-08-20T13:05:53.753Z,39.6
2018-08-20T13:06:55.368Z,40.6
2018-08-20T13:07:56.973Z,40.1
2018-08-20T13:08:59.172Z,39.6
2018-08-20T13:10:00.624Z,40.6
2018-08-20T13:11:02.049Z,40.1
2018-08-20T13:12:03.336Z,41.1
2018-08-20T13:13:04.778Z,41.1
2018-08-20T13:14:06.056Z,40.6
2018-08-20T13:15:07.673Z,40.6
2018-08-20T13:16:10.396Z,41.1
2018-08-20T13:17:12.760Z,41.5
2018-08-20T13:18:14.575Z,41.5
2018-08-20T13:19:16.374Z,41.1
2018-08-20T13:20:17.656Z,41.1
2018-08-20T13:21:19.280Z,42
2018-08-20T13:22:20.896Z,42
2018-08-20T13:23:22.502Z,42
2018-08-20T13:24:24.112Z,41.5
2018-08-20T13:25:25.574Z,42
2018-08-20T13:26:27.024Z,42
2018-08-20T13:27:28.636Z,42.5
2018-08-20T13:28:30.251Z,42
2018-08-20T13:29:31.867Z,42.5
2018-08-20T13:30:33.723Z,41.5
2018-08-20T13:31:35.322Z,41.5
2018-08-20T13:32:36.910Z,42
2018-08-20T13:33:38.563Z,42
2018-08-20T13:34:40.181Z,42.5
2018-08-20T13:35:41.624Z,41.5
2018-08-20T13:36:43.272Z,42
2018-08-20T13:37:44.887Z,42
2018-08-20T13:38:46.540Z,42
2018-08-20T13:39:47.829Z,42
2018-08-20T13:40:49.117Z,41.5
2018-08-20T13:41:50.567Z,41.5
2018-08-20T13:42:52.171Z,42
2018-08-20T13:43:53.770Z,42
2018-08-20T13:44:55.277Z,42
2018-08-20T13:45:56.915Z,42